Time;durP1;ratioP1;P1;durP2;ratioP2;P2;SDS_P1;SDS_P2;PMS_P1;PMS_P2;Temp;Humidity;BMP_temperature;BMP_pressure;BME280_temperature;BME280_humidity;BME280_pressure;Samples;Min_cycle;Max_cycle;Signal;HPM_P1;HPM_P2
2024/02/26 00:02:17;;;;;;;0.20;0.10;;;;;;;;;;4993322;28;20728;-80
2024/02/26 00:04:43;;;;;;;0.20;0.10;;;;;;;;;;5008064;28;20822;-79
2024/02/26 00:07:09;;;;;;;0.20;0.10;;;;;;;;;;4993688;28;20041;-79
2024/02/26 00:09:37;;;;;;;0.35;0.17;;;;;;;;;;4995576;28;20056;-79
2024/02/26 00:12:03;;;;;;;0.20;0.10;;;;;;;;;;4988413;28;20049;-80
2024/02/26 00:14:30;;;;;;;0.20;0.20;;;;;;;;;;4994803;28;20170;-80
2024/02/26 00:16:56;;;;;;;0.20;0.20;;;;;;;;;;4999192;28;20079;-80
2024/02/26 00:19:22;;;;;;;0.20;0.17;;;;;;;;;;5001704;28;20069;-80
2024/02/26 00:21:48;;;;;;;0.20;0.10;;;;;;;;;;4976005;28;20153;-79
2024/02/26 00:24:14;;;;;;;0.20;0.10;;;;;;;;;;4996035;28;20045;-79
2024/02/26 00:26:40;;;;;;;0.20;0.00;;;;;;;;;;5006301;28;20042;-80
2024/02/26 00:29:06;;;;;;;0.20;0.00;;;;;;;;;;5002379;28;23305;-79
2024/02/26 00:31:32;;;;;;;0.20;0.10;;;;;;;;;;5004108;28;20049;-80
2024/02/26 00:33:58;;;;;;;0.20;0.10;;;;;;;;;;4996170;28;20400;-78
2024/02/26 00:36:24;;;;;;;0.20;0.10;;;;;;;;;;5004608;28;20033;-79
2024/02/26 00:38:50;;;;;;;0.20;0.10;;;;;;;;;;4999120;28;20544;-80
2024/02/26 00:41:23;;;;;;;0.20;0.10;;;;;;;;;;4992846;28;20037;-78
2024/02/26 00:43:49;;;;;;;0.20;0.10;;;;;;;;;;5032232;28;20064;-79
2024/02/26 00:46:15;;;;;;;0.20;0.00;;;;;;;;;;4991359;28;20517;-80
2024/02/26 00:48:41;;;;;;;0.20;0.10;;;;;;;;;;4996422;28;20049;-78
2024/02/26 00:51:07;;;;;;;0.20;0.10;;;;;;;;;;5009600;28;20050;-81
2024/02/26 00:53:34;;;;;;;0.20;0.10;;;;;;;;;;4992443;28;20065;-80
2024/02/26 00:56:00;;;;;;;0.20;0.10;;;;;;;;;;4992395;28;20038;-79
2024/02/26 00:58:26;;;;;;;0.20;0.10;;;;;;;;;;4973598;28;20102;-78
2024/02/26 01:00:52;;;;;;;0.20;0.10;;;;;;;;;;4979297;28;20045;-80
2024/02/26 01:03:18;;;;;;;0.20;0.10;;;;;;;;;;4993978;28;20272;-80
2024/02/26 01:05:45;;;;;;;0.20;0.10;;;;;;;;;;4999371;28;20592;-79
2024/02/26 01:08:11;;;;;;;0.82;0.35;;;;;;;;;;4984006;28;20034;-79
2024/02/26 01:10:37;;;;;;;0.20;0.10;;;;;;;;;;4984700;28;20052;-79
2024/02/26 01:13:03;;;;;;;0.20;0.10;;;;;;;;;;4996067;28;20619;-78
2024/02/26 01:15:29;;;;;;;0.20;0.10;;;;;;;;;;4984851;28;20448;-79
2024/02/26 01:17:55;;;;;;;0.25;0.25;;;;;;;;;;4995456;28;20042;-78
2024/02/26 01:20:21;;;;;;;0.20;0.10;;;;;;;;;;4991548;28;20041;-79
2024/02/26 01:22:47;;;;;;;0.20;0.10;;;;;;;;;;4998636;28;20045;-82
2024/02/26 01:25:14;;;;;;;0.20;0.03;;;;;;;;;;4991447;28;20060;-79
2024/02/26 01:27:42;;;;;;;0.20;0.00;;;;;;;;;;4982897;23;20033;-80
2024/02/26 01:30:08;;;;;;;0.20;0.10;;;;;;;;;;4935031;28;20137;-81
2024/02/26 01:32:36;;;;;;;0.20;0.00;;;;;;;;;;4917531;28;20133;-81
2024/02/26 01:35:03;;;;;;;0.35;0.30;;;;;;;;;;4920224;28;20451;-82
2024/02/26 01:37:32;;;;;;;0.20;0.10;;;;;;;;;;4943019;28;20090;-82
2024/02/26 01:39:58;;;;;;;0.20;0.10;;;;;;;;;;4948621;28;20038;-82
2024/02/26 01:42:24;;;;;;;0.35;0.35;;;;;;;;;;4953329;28;20101;-82
2024/02/26 01:44:50;;;;;;;0.20;0.10;;;;;;;;;;4960235;28;20414;-82
2024/02/26 01:47:16;;;;;;;0.20;0.10;;;;;;;;;;4938647;28;20046;-79
2024/02/26 01:49:42;;;;;;;0.20;0.10;;;;;;;;;;4937054;28;20396;-81
2024/02/26 01:52:09;;;;;;;0.20;0.10;;;;;;;;;;4957389;28;20068;-83
2024/02/26 01:54:37;;;;;;;0.43;0.30;;;;;;;;;;4942942;28;20122;-83
2024/02/26 01:57:03;;;;;;;0.20;0.10;;;;;;;;;;4959807;28;20042;-83
2024/02/26 01:59:30;;;;;;;0.20;0.10;;;;;;;;;;4958251;28;20165;-82
2024/02/26 02:01:58;;;;;;;0.20;0.10;;;;;;;;;;4953670;28;20046;-82
2024/02/26 02:04:24;;;;;;;0.20;0.10;;;;;;;;;;4948322;28;20043;-82
2024/02/26 02:06:51;;;;;;;0.20;0.10;;;;;;;;;;4945031;28;20042;-82
2024/02/26 02:09:17;;;;;;;0.20;0.10;;;;;;;;;;4943236;28;20546;-82
2024/02/26 02:11:44;;;;;;;0.20;0.10;;;;;;;;;;4944070;28;20042;-83
2024/02/26 02:14:10;;;;;;;0.65;0.38;;;;;;;;;;4951875;28;20038;-82
2024/02/26 02:16:36;;;;;;;0.20;0.10;;;;;;;;;;4958527;28;20046;-81
2024/02/26 02:19:02;;;;;;;0.20;0.10;;;;;;;;;;4962068;28;20177;-83
2024/02/26 02:21:28;;;;;;;1.10;0.57;;;;;;;;;;4983323;28;20073;-83
2024/02/26 02:23:54;;;;;;;0.20;0.10;;;;;;;;;;4960421;28;20042;-81
2024/02/26 02:26:20;;;;;;;0.20;0.10;;;;;;;;;;4953204;28;20047;-80
2024/02/26 02:28:47;;;;;;;0.65;0.47;;;;;;;;;;4956777;28;20042;-85
2024/02/26 02:31:13;;;;;;;0.20;0.10;;;;;;;;;;4939262;28;20039;-81
2024/02/26 02:33:39;;;;;;;1.10;0.50;;;;;;;;;;4941848;28;20041;-82
2024/02/26 02:36:09;;;;;;;0.20;0.00;;;;;;;;;;4940388;28;20631;-80
2024/02/26 02:38:35;;;;;;;0.38;0.38;;;;;;;;;;4942693;28;20031;-82
2024/02/26 02:41:01;;;;;;;0.20;0.00;;;;;;;;;;4960379;28;20038;-80
2024/02/26 02:43:27;;;;;;;0.20;0.10;;;;;;;;;;4944055;28;20487;-82
2024/02/26 02:45:53;;;;;;;0.20;0.10;;;;;;;;;;4953822;28;20038;-81
2024/02/26 02:48:19;;;;;;;0.20;0.00;;;;;;;;;;4956992;28;20027;-83
2024/02/26 02:50:46;;;;;;;0.20;0.10;;;;;;;;;;4952824;28;20046;-83
2024/02/26 02:53:12;;;;;;;0.20;0.10;;;;;;;;;;4941113;28;23898;-83
2024/02/26 02:55:38;;;;;;;0.20;0.00;;;;;;;;;;4957920;28;20513;-81
2024/02/26 02:58:04;;;;;;;0.20;0.10;;;;;;;;;;4944070;28;20046;-81
2024/02/26 03:00:30;;;;;;;0.20;0.10;;;;;;;;;;4962475;28;20065;-81
2024/02/26 03:02:56;;;;;;;0.43;0.43;;;;;;;;;;4934681;28;20168;-82
2024/02/26 03:05:22;;;;;;;0.20;0.10;;;;;;;;;;4957033;28;20493;-83
2024/02/26 03:07:48;;;;;;;0.20;0.10;;;;;;;;;;4943509;28;20046;-81
2024/02/26 03:10:14;;;;;;;0.22;0.05;;;;;;;;;;4945079;28;20046;-84
2024/02/26 03:12:40;;;;;;;0.20;0.10;;;;;;;;;;4954424;28;20342;-84
2024/02/26 03:15:06;;;;;;;0.20;0.10;;;;;;;;;;4935764;28;20125;-83
2024/02/26 03:17:33;;;;;;;0.20;0.00;;;;;;;;;;4952415;28;20042;-84
2024/02/26 03:19:59;;;;;;;0.20;0.10;;;;;;;;;;4943301;28;20049;-83
2024/02/26 03:22:25;;;;;;;0.20;0.10;;;;;;;;;;4949125;28;20053;-80
2024/02/26 03:24:51;;;;;;;0.20;0.10;;;;;;;;;;4961615;28;20080;-80
2024/02/26 03:27:17;;;;;;;0.30;0.30;;;;;;;;;;4972119;28;20126;-80
2024/02/26 03:29:43;;;;;;;0.20;0.10;;;;;;;;;;4932147;28;20053;-80
2024/02/26 03:32:09;;;;;;;0.20;0.10;;;;;;;;;;4951780;28;20049;-81
2024/02/26 03:34:35;;;;;;;0.20;0.10;;;;;;;;;;4945560;28;20426;-82
2024/02/26 03:37:01;;;;;;;0.20;0.00;;;;;;;;;;4965435;28;20046;-82
2024/02/26 03:39:27;;;;;;;0.68;0.32;;;;;;;;;;4960839;28;20057;-82
2024/02/26 03:41:54;;;;;;;0.20;0.10;;;;;;;;;;4948408;28;20121;-81
2024/02/26 03:44:20;;;;;;;0.22;0.17;;;;;;;;;;4942667;28;20065;-80
2024/02/26 03:46:46;;;;;;;0.20;0.10;;;;;;;;;;4955198;28;20053;-82
2024/02/26 03:49:13;;;;;;;0.20;0.20;;;;;;;;;;4941092;28;20121;-82
2024/02/26 03:51:39;;;;;;;0.20;0.05;;;;;;;;;;4959106;28;20044;-80
2024/02/26 03:54:05;;;;;;;0.20;0.13;;;;;;;;;;4947238;28;20046;-83
2024/02/26 03:56:31;;;;;;;0.20;0.10;;;;;;;;;;4941983;28;20498;-82
2024/02/26 03:58:59;;;;;;;0.20;0.00;;;;;;;;;;4946274;28;20060;-80
2024/02/26 04:01:25;;;;;;;0.98;0.57;;;;;;;;;;4947679;28;20053;-81
2024/02/26 04:03:52;;;;;;;0.20;0.00;;;;;;;;;;4943360;28;20050;-81
2024/02/26 04:06:24;;;;;;;0.32;0.32;;;;;;;;;;4945214;28;20081;-81
2024/02/26 04:08:50;;;;;;;0.20;0.10;;;;;;;;;;4942602;28;20038;-81
2024/02/26 04:11:18;;;;;;;0.20;0.15;;;;;;;;;;4969548;28;20046;-80
2024/02/26 04:13:46;;;;;;;0.20;0.10;;;;;;;;;;4968696;28;20046;-80
2024/02/26 04:16:12;;;;;;;0.20;0.10;;;;;;;;;;4949020;28;20043;-79
2024/02/26 04:18:38;;;;;;;0.20;0.10;;;;;;;;;;4958637;28;20035;-81
2024/02/26 04:21:06;;;;;;;0.20;0.00;;;;;;;;;;4956731;28;20037;-80
2024/02/26 04:23:33;;;;;;;0.20;0.10;;;;;;;;;;4960922;28;20804;-81
2024/02/26 04:25:59;;;;;;;0.20;0.20;;;;;;;;;;4962187;28;20730;-82
2024/02/26 04:28:29;;;;;;;0.20;0.10;;;;;;;;;;4963221;28;20046;-81
2024/02/26 04:30:55;;;;;;;0.20;0.10;;;;;;;;;;4945570;28;20038;-80
2024/02/26 04:33:21;;;;;;;0.20;0.15;;;;;;;;;;4952729;28;20038;-82
2024/02/26 04:35:47;;;;;;;0.35;0.30;;;;;;;;;;4947959;28;20510;-79
2024/02/26 04:38:14;;;;;;;1.17;0.45;;;;;;;;;;4962148;28;20042;-78
2024/02/26 04:40:40;;;;;;;0.20;0.05;;;;;;;;;;4982974;28;20502;-79
2024/02/26 04:43:06;;;;;;;1.13;0.30;;;;;;;;;;4949274;28;20040;-79
2024/02/26 04:45:32;;;;;;;0.20;0.10;;;;;;;;;;4966043;28;20050;-78
2024/02/26 04:47:58;;;;;;;0.20;0.10;;;;;;;;;;4972089;28;20137;-80
2024/02/26 04:50:25;;;;;;;0.20;0.10;;;;;;;;;;4943361;28;20060;-80
2024/02/26 04:52:51;;;;;;;0.20;0.10;;;;;;;;;;4941470;28;20134;-80
2024/02/26 04:55:17;;;;;;;1.00;0.38;;;;;;;;;;4958242;28;20668;-81
2024/02/26 04:57:43;;;;;;;0.20;0.10;;;;;;;;;;4954121;28;20042;-79
2024/02/26 05:00:09;;;;;;;0.20;0.10;;;;;;;;;;4971184;28;20044;-80
2024/02/26 05:02:37;;;;;;;0.20;0.10;;;;;;;;;;4953921;28;20050;-80
2024/02/26 05:05:05;;;;;;;0.20;0.10;;;;;;;;;;4955765;28;20130;-81
2024/02/26 05:07:31;;;;;;;0.20;0.10;;;;;;;;;;4963148;28;20095;-80
2024/02/26 05:09:57;;;;;;;0.20;0.10;;;;;;;;;;4973135;28;20065;-79
2024/02/26 05:12:23;;;;;;;0.20;0.20;;;;;;;;;;4984819;28;20100;-82
2024/02/26 05:14:49;;;;;;;0.20;0.10;;;;;;;;;;4981395;28;20474;-80
2024/02/26 05:17:15;;;;;;;0.20;0.00;;;;;;;;;;4968402;28;20061;-81
2024/02/26 05:19:41;;;;;;;0.20;0.10;;;;;;;;;;4974460;28;20030;-81
2024/02/26 05:22:07;;;;;;;0.20;0.10;;;;;;;;;;4968774;28;20114;-82
2024/02/26 05:24:33;;;;;;;0.20;0.10;;;;;;;;;;4967358;28;20122;-81
2024/02/26 05:27:00;;;;;;;0.20;0.10;;;;;;;;;;4952168;28;20054;-81
2024/02/26 05:29:26;;;;;;;0.20;0.10;;;;;;;;;;4966534;28;20034;-83
2024/02/26 05:31:54;;;;;;;0.20;0.10;;;;;;;;;;4964638;28;21475;-82
2024/02/26 05:34:20;;;;;;;0.20;0.10;;;;;;;;;;4967407;28;20042;-80
2024/02/26 05:36:46;;;;;;;0.20;0.10;;;;;;;;;;4947409;28;20121;-81
2024/02/26 05:39:12;;;;;;;0.20;0.00;;;;;;;;;;4959792;28;20058;-79
2024/02/26 05:41:38;;;;;;;0.22;0.20;;;;;;;;;;4946723;28;20100;-80
2024/02/26 05:44:05;;;;;;;0.20;0.00;;;;;;;;;;4966316;28;20120;-84
2024/02/26 05:46:31;;;;;;;0.20;0.10;;;;;;;;;;4951115;28;20042;-81
2024/02/26 05:48:57;;;;;;;0.20;0.10;;;;;;;;;;4958842;28;20057;-81
2024/02/26 05:51:23;;;;;;;0.20;0.10;;;;;;;;;;4964744;28;20133;-81
2024/02/26 05:53:53;;;;;;;0.20;0.10;;;;;;;;;;4960861;28;20050;-82
2024/02/26 05:56:19;;;;;;;0.20;0.10;;;;;;;;;;4961163;28;20106;-81
2024/02/26 05:58:47;;;;;;;0.20;0.10;;;;;;;;;;4965372;28;20049;-82
2024/02/26 06:01:13;;;;;;;0.20;0.10;;;;;;;;;;4944467;28;21432;-84
2024/02/26 06:03:39;;;;;;;0.20;0.10;;;;;;;;;;4960090;28;20038;-82
2024/02/26 06:06:08;;;;;;;0.20;0.10;;;;;;;;;;4962540;28;20565;-82
2024/02/26 06:08:52;;;;;;;0.20;0.10;;;;;;;;;;4973441;28;20503;-82
2024/02/26 06:11:19;;;;;;;0.30;0.25;;;;;;;;;;4967022;28;20102;-82
2024/02/26 06:13:45;;;;;;;0.20;0.00;;;;;;;;;;4949975;28;20046;-86
2024/02/26 06:16:17;;;;;;;0.20;0.10;;;;;;;;;;4951660;28;20058;-85
2024/02/26 06:18:46;;;;;;;0.20;0.10;;;;;;;;;;4968347;28;20038;-83
2024/02/26 06:21:44;;;;;;;0.20;0.10;;;;;;;;;;4946645;28;20545;-81
2024/02/26 06:24:15;;;;;;;0.20;0.15;;;;;;;;;;4957861;28;20094;-83
2024/02/26 06:26:44;;;;;;;0.20;0.10;;;;;;;;;;4960499;28;20134;-84
2024/02/26 06:29:13;;;;;;;0.20;0.10;;;;;;;;;;4966010;28;20050;-83
2024/02/26 06:31:43;;;;;;;0.20;0.10;;;;;;;;;;4957364;28;20050;-81
2024/02/26 06:34:09;;;;;;;0.20;0.03;;;;;;;;;;4941953;28;20475;-83
2024/02/26 06:36:35;;;;;;;0.20;0.10;;;;;;;;;;4953462;28;20053;-78
2024/02/26 06:39:01;;;;;;;0.95;0.70;;;;;;;;;;4940514;28;20131;-83
2024/02/26 06:41:30;;;;;;;0.20;0.00;;;;;;;;;;4953224;28;20046;-82
2024/02/26 06:43:59;;;;;;;0.20;0.10;;;;;;;;;;4989166;28;20129;-81
2024/02/26 06:46:30;;;;;;;0.20;0.10;;;;;;;;;;4958373;28;20042;-83
2024/02/26 06:49:04;;;;;;;0.20;0.17;;;;;;;;;;4942562;28;20085;-80
2024/02/26 06:51:34;;;;;;;0.20;0.10;;;;;;;;;;4955382;28;20058;-81
2024/02/26 06:54:00;;;;;;;0.20;0.10;;;;;;;;;;4957870;28;20086;-87
2024/02/26 06:56:28;;;;;;;0.20;0.00;;;;;;;;;;4948331;28;20473;-81
2024/02/26 06:58:54;;;;;;;0.20;0.10;;;;;;;;;;4963277;28;20034;-83
2024/02/26 07:01:20;;;;;;;0.20;0.10;;;;;;;;;;4971885;28;20039;-83
2024/02/26 07:03:46;;;;;;;0.43;0.30;;;;;;;;;;4968955;28;20356;-82
2024/02/26 07:06:13;;;;;;;0.20;0.10;;;;;;;;;;4987278;28;20074;-82
2024/02/26 07:08:39;;;;;;;0.20;0.10;;;;;;;;;;4953877;28;20094;-83
2024/02/26 07:11:09;;;;;;;0.20;0.10;;;;;;;;;;4957053;28;20038;-81
2024/02/26 07:13:35;;;;;;;0.20;0.10;;;;;;;;;;4978558;28;20133;-83
2024/02/26 07:16:01;;;;;;;0.20;0.10;;;;;;;;;;4964952;28;20322;-82
2024/02/26 07:18:28;;;;;;;0.20;0.10;;;;;;;;;;4958136;28;20034;-82
2024/02/26 07:20:54;;;;;;;0.20;0.10;;;;;;;;;;4961915;28;20038;-81
2024/02/26 07:23:20;;;;;;;0.22;0.15;;;;;;;;;;4978307;28;20038;-82
2024/02/26 07:25:55;;;;;;;0.20;0.10;;;;;;;;;;4973439;28;20188;-82
2024/02/26 07:28:41;;;;;;;0.20;0.00;;;;;;;;;;4974933;23;20124;-87
2024/02/26 07:31:17;;;;;;;0.20;0.10;;;;;;;;;;4980241;28;20042;-85
2024/02/26 07:33:50;;;;;;;0.20;0.10;;;;;;;;;;4982019;28;20104;-86
2024/02/26 07:36:16;;;;;;;0.20;0.10;;;;;;;;;;4985394;28;20087;-80
2024/02/26 07:38:44;;;;;;;0.20;0.10;;;;;;;;;;4993502;28;20068;-84
2024/02/26 07:41:17;;;;;;;0.20;0.10;;;;;;;;;;5002350;28;20416;-87
2024/02/26 07:43:45;;;;;;;0.20;0.10;;;;;;;;;;4967737;28;20038;-89
2024/02/26 07:46:12;;;;;;;0.20;0.10;;;;;;;;;;5017627;28;20326;-84
2024/02/26 07:48:38;;;;;;;0.20;0.20;;;;;;;;;;4994531;28;20034;-83
2024/02/26 07:51:05;;;;;;;0.20;0.20;;;;;;;;;;4959326;28;20038;-87
2024/02/26 07:53:39;;;;;;;0.20;0.10;;;;;;;;;;4964523;28;20498;-84
2024/02/26 07:56:08;;;;;;;0.20;0.10;;;;;;;;;;4967889;28;20453;-83
2024/02/26 07:58:43;;;;;;;0.20;0.10;;;;;;;;;;4985700;28;20121;-85
2024/02/26 08:01:13;;;;;;;0.20;0.10;;;;;;;;;;5010566;28;20058;-86
2024/02/26 08:03:39;;;;;;;0.20;0.10;;;;;;;;;;4965547;28;20034;-83
2024/02/26 08:06:11;;;;;;;0.20;0.10;;;;;;;;;;4997187;28;20037;-84
2024/02/26 08:08:49;;;;;;;0.20;0.10;;;;;;;;;;5018998;28;20056;-85
2024/02/26 08:11:48;;;;;;;0.20;0.10;;;;;;;;;;4996436;28;20033;-87
2024/02/26 08:14:14;;;;;;;0.20;0.10;;;;;;;;;;4980840;28;20042;-83
2024/02/26 08:16:40;;;;;;;0.20;0.10;;;;;;;;;;4995326;28;20092;-84
2024/02/26 08:19:06;;;;;;;0.20;0.10;;;;;;;;;;4961653;28;20101;-80
2024/02/26 08:21:32;;;;;;;0.20;0.10;;;;;;;;;;4971608;28;20057;-83
2024/02/26 08:23:58;;;;;;;0.20;0.10;;;;;;;;;;4981273;28;20046;-82
2024/02/26 08:26:24;;;;;;;0.20;0.10;;;;;;;;;;5013946;28;20042;-83
2024/02/26 08:28:51;;;;;;;0.20;0.00;;;;;;;;;;4985555;28;20514;-83
2024/02/26 08:31:17;;;;;;;0.20;0.10;;;;;;;;;;5000571;28;20570;-81
2024/02/26 08:33:43;;;;;;;0.20;0.10;;;;;;;;;;4991063;28;20060;-82
2024/02/26 08:36:12;;;;;;;0.20;0.10;;;;;;;;;;4999152;28;20034;-83
2024/02/26 08:38:38;;;;;;;0.20;0.10;;;;;;;;;;4970120;28;20034;-81
2024/02/26 08:41:08;;;;;;;0.20;0.00;;;;;;;;;;5016909;28;20044;-82
2024/02/26 08:43:34;;;;;;;0.20;0.10;;;;;;;;;;4974270;28;20037;-85
2024/02/26 08:46:16;;;;;;;0.20;0.10;;;;;;;;;;4971368;28;20046;-83
2024/02/26 08:48:42;;;;;;;0.20;0.10;;;;;;;;;;5004449;28;20069;-86
2024/02/26 08:51:08;;;;;;;0.30;0.28;;;;;;;;;;4971530;28;20116;-84
2024/02/26 08:53:38;;;;;;;0.20;0.10;;;;;;;;;;5001583;28;20490;-86
2024/02/26 08:56:28;;;;;;;0.20;0.10;;;;;;;;;;4987084;28;20133;-84
2024/02/26 08:59:03;;;;;;;0.20;0.10;;;;;;;;;;4974393;28;20046;-83
2024/02/26 09:01:41;;;;;;;0.20;0.10;;;;;;;;;;4977161;28;20049;-85
2024/02/26 09:04:10;;;;;;;0.50;0.30;;;;;;;;;;4986091;28;20053;-83
2024/02/26 09:06:36;;;;;;;0.20;0.10;;;;;;;;;;4971538;28;20437;-82
2024/02/26 09:09:07;;;;;;;0.20;0.10;;;;;;;;;;4966966;28;20068;-86
2024/02/26 09:11:33;;;;;;;0.38;0.38;;;;;;;;;;4976539;28;20053;-83
2024/02/26 09:13:59;;;;;;;0.20;0.10;;;;;;;;;;4994648;28;20121;-84
2024/02/26 09:16:25;;;;;;;0.20;0.10;;;;;;;;;;4979120;28;20547;-82
2024/02/26 09:18:57;;;;;;;1.30;0.35;;;;;;;;;;5005060;23;20379;-84
2024/02/26 09:21:26;;;;;;;0.20;0.10;;;;;;;;;;4969301;28;20145;-84
2024/02/26 09:23:53;;;;;;;0.20;0.10;;;;;;;;;;4987751;28;20041;-86
2024/02/26 09:26:19;;;;;;;0.20;0.10;;;;;;;;;;4984467;28;20343;-82
2024/02/26 09:28:48;;;;;;;0.20;0.10;;;;;;;;;;4976065;28;20116;-80
2024/02/26 09:31:16;;;;;;;0.20;0.05;;;;;;;;;;4987511;28;20346;-83
2024/02/26 09:33:42;;;;;;;0.28;0.28;;;;;;;;;;5001607;23;20136;-80
2024/02/26 09:36:10;;;;;;;0.20;0.10;;;;;;;;;;4994031;28;20045;-81
2024/02/26 09:38:37;;;;;;;0.20;0.10;;;;;;;;;;4990424;28;20080;-79
2024/02/26 09:41:04;;;;;;;0.20;0.10;;;;;;;;;;5023156;28;20045;-80
2024/02/26 09:43:35;;;;;;;0.20;0.10;;;;;;;;;;5019590;28;20029;-84
2024/02/26 09:46:02;;;;;;;0.20;0.10;;;;;;;;;;5025199;28;20665;-84
2024/02/26 09:48:28;;;;;;;0.20;0.10;;;;;;;;;;5024599;28;20156;-81
2024/02/26 09:50:54;;;;;;;0.20;0.10;;;;;;;;;;5025051;28;20044;-80
2024/02/26 09:53:22;;;;;;;0.20;0.13;;;;;;;;;;5021716;28;20034;-85
2024/02/26 09:55:48;;;;;;;0.20;0.10;;;;;;;;;;5009124;28;20153;-79
2024/02/26 09:58:18;;;;;;;0.20;0.10;;;;;;;;;;5024727;28;20053;-81
2024/02/26 10:00:47;;;;;;;0.20;0.10;;;;;;;;;;5026448;28;20044;-81
2024/02/26 10:03:15;;;;;;;0.20;0.10;;;;;;;;;;5005640;28;20052;-84
2024/02/26 10:05:42;;;;;;;0.65;0.40;;;;;;;;;;5021692;28;20053;-78
2024/02/26 10:08:09;;;;;;;0.20;0.00;;;;;;;;;;5022501;28;20684;-81
2024/02/26 10:10:36;;;;;;;0.20;0.00;;;;;;;;;;5022470;28;20041;-81
2024/02/26 10:13:09;;;;;;;0.20;0.10;;;;;;;;;;5005054;28;20045;-79
2024/02/26 10:15:35;;;;;;;0.20;0.10;;;;;;;;;;5009559;28;20041;-83
2024/02/26 10:18:04;;;;;;;0.20;0.10;;;;;;;;;;5010042;28;20080;-82
2024/02/26 10:20:31;;;;;;;0.20;0.10;;;;;;;;;;5023189;28;20135;-85
2024/02/26 10:22:57;;;;;;;0.20;0.03;;;;;;;;;;5025001;28;20547;-80
2024/02/26 10:25:23;;;;;;;0.20;0.10;;;;;;;;;;5008858;28;20044;-79
2024/02/26 10:27:49;;;;;;;0.20;0.10;;;;;;;;;;5005639;28;20045;-83
2024/02/26 10:30:22;;;;;;;0.20;0.10;;;;;;;;;;5022825;28;20096;-80
2024/02/26 10:32:49;;;;;;;0.20;0.20;;;;;;;;;;5020003;28;20475;-82
2024/02/26 10:35:20;;;;;;;0.20;0.10;;;;;;;;;;5007429;28;20038;-81
2024/02/26 10:37:46;;;;;;;0.20;0.10;;;;;;;;;;5028812;28;20075;-79
2024/02/26 10:40:15;;;;;;;0.20;0.08;;;;;;;;;;5008181;28;20045;-80
2024/02/26 10:42:42;;;;;;;0.20;0.10;;;;;;;;;;5023485;28;20072;-81
2024/02/26 10:45:09;;;;;;;0.20;0.10;;;;;;;;;;5024341;28;20050;-84
2024/02/26 10:47:35;;;;;;;0.20;0.10;;;;;;;;;;5018117;28;20041;-81
2024/02/26 10:50:03;;;;;;;0.20;0.10;;;;;;;;;;5020009;28;20041;-82
2024/02/26 10:52:32;;;;;;;0.20;0.10;;;;;;;;;;5025119;28;20052;-81
2024/02/26 10:55:02;;;;;;;0.20;0.10;;;;;;;;;;5019570;28;20067;-82
2024/02/26 10:57:32;;;;;;;0.20;0.10;;;;;;;;;;5002378;28;20178;-80
2024/02/26 10:59:58;;;;;;;1.38;0.30;;;;;;;;;;5006270;28;20102;-80
2024/02/26 11:02:24;;;;;;;0.20;0.10;;;;;;;;;;5008639;28;20045;-82
2024/02/26 11:04:50;;;;;;;0.20;0.10;;;;;;;;;;5016917;28;20038;-82
2024/02/26 11:07:16;;;;;;;0.20;0.10;;;;;;;;;;5021474;28;20044;-81
2024/02/26 11:09:44;;;;;;;0.20;0.10;;;;;;;;;;5022726;28;20548;-81
2024/02/26 11:12:12;;;;;;;0.55;0.55;;;;;;;;;;5005608;28;20041;-78
2024/02/26 11:14:39;;;;;;;0.20;0.08;;;;;;;;;;5007926;28;20429;-82
2024/02/26 11:17:06;;;;;;;0.20;0.10;;;;;;;;;;5008037;28;20528;-80
2024/02/26 11:19:34;;;;;;;0.20;0.17;;;;;;;;;;5020012;28;20042;-80
2024/02/26 11:22:01;;;;;;;0.20;0.10;;;;;;;;;;5021307;28;20040;-81
2024/02/26 11:24:27;;;;;;;0.20;0.10;;;;;;;;;;5004468;28;21611;-81
2024/02/26 11:26:58;;;;;;;0.20;0.00;;;;;;;;;;5020470;28;20056;-81
2024/02/26 11:29:28;;;;;;;0.20;0.10;;;;;;;;;;5008212;28;20060;-79
2024/02/26 11:31:54;;;;;;;0.20;0.10;;;;;;;;;;5023143;28;20481;-81
2024/02/26 11:34:20;;;;;;;0.32;0.32;;;;;;;;;;5027598;28;20124;-81
2024/02/26 11:36:46;;;;;;;0.20;0.10;;;;;;;;;;5027844;28;20110;-80
2024/02/26 11:39:15;;;;;;;0.20;0.10;;;;;;;;;;5010556;28;20040;-80
2024/02/26 11:41:41;;;;;;;0.20;0.10;;;;;;;;;;5025684;28;20115;-81
2024/02/26 11:44:07;;;;;;;0.20;0.10;;;;;;;;;;5020474;28;20705;-81
2024/02/26 11:46:34;;;;;;;0.20;0.10;;;;;;;;;;5008926;28;20405;-82
2024/02/26 11:49:04;;;;;;;0.20;0.10;;;;;;;;;;5024739;28;20041;-80
2024/02/26 11:51:34;;;;;;;0.20;0.10;;;;;;;;;;5026340;28;20045;-81
2024/02/26 11:54:00;;;;;;;0.20;0.15;;;;;;;;;;5026355;28;20033;-82
2024/02/26 11:56:26;;;;;;;0.20;0.10;;;;;;;;;;5026128;28;20030;-81
2024/02/26 11:58:59;;;;;;;0.20;0.00;;;;;;;;;;5024610;28;20467;-83
2024/02/26 12:01:58;;;;;;;0.20;0.10;;;;;;;;;;5023772;28;20132;-82
2024/02/26 12:04:30;;;;;;;0.20;0.10;;;;;;;;;;4987775;28;20046;-84
2024/02/26 12:06:59;;;;;;;0.20;0.10;;;;;;;;;;5014430;28;20103;-80
2024/02/26 12:09:32;;;;;;;0.20;0.10;;;;;;;;;;5028660;28;20040;-81
2024/02/26 12:11:58;;;;;;;0.20;0.10;;;;;;;;;;5025386;28;20045;-81
2024/02/26 12:14:27;;;;;;;0.55;0.55;;;;;;;;;;5017257;28;20545;-81
2024/02/26 12:16:53;;;;;;;0.30;0.25;;;;;;;;;;5029486;28;20439;-82
2024/02/26 12:19:19;;;;;;;1.10;0.47;;;;;;;;;;5025265;28;20060;-81
2024/02/26 12:21:51;;;;;;;0.40;0.40;;;;;;;;;;5029803;28;20076;-81
2024/02/26 12:24:19;;;;;;;0.20;0.10;;;;;;;;;;5019618;28;20040;-82
2024/02/26 12:26:46;;;;;;;0.20;0.10;;;;;;;;;;5031854;28;20106;-82
2024/02/26 12:29:13;;;;;;;0.20;0.05;;;;;;;;;;5011687;28;20041;-78
2024/02/26 12:31:39;;;;;;;0.20;0.10;;;;;;;;;;5030172;28;20505;-81
2024/02/26 12:34:06;;;;;;;0.20;0.10;;;;;;;;;;5025229;28;20036;-80
2024/02/26 12:36:34;;;;;;;0.20;0.10;;;;;;;;;;5016552;28;20048;-80
2024/02/26 12:39:02;;;;;;;0.20;0.10;;;;;;;;;;5013388;28;20516;-80
2024/02/26 12:41:30;;;;;;;0.20;0.10;;;;;;;;;;5029552;28;20041;-82
2024/02/26 12:43:56;;;;;;;0.20;0.10;;;;;;;;;;5013278;28;20040;-81
2024/02/26 12:46:22;;;;;;;0.30;0.10;;;;;;;;;;5031112;28;20662;-81
2024/02/26 12:48:48;;;;;;;0.20;0.10;;;;;;;;;;5006052;28;20044;-80
2024/02/26 12:51:16;;;;;;;0.30;0.30;;;;;;;;;;5028480;28;20040;-82
2024/02/26 12:53:44;;;;;;;0.20;0.10;;;;;;;;;;5027317;28;20049;-80
2024/02/26 12:56:12;;;;;;;0.20;0.10;;;;;;;;;;5011691;28;20132;-79
2024/02/26 12:58:39;;;;;;;0.20;0.10;;;;;;;;;;5013533;28;20128;-78
2024/02/26 13:01:05;;;;;;;0.20;0.05;;;;;;;;;;5012886;28;20099;-80
2024/02/26 13:03:32;;;;;;;0.55;0.55;;;;;;;;;;5025576;28;20040;-80
2024/02/26 13:05:58;;;;;;;0.20;0.10;;;;;;;;;;5028684;28;20055;-84
2024/02/26 13:08:25;;;;;;;0.20;0.10;;;;;;;;;;5023873;28;21516;-80
2024/02/26 13:10:51;;;;;;;0.20;0.10;;;;;;;;;;5012534;28;20113;-80
2024/02/26 13:13:19;;;;;;;0.20;0.10;;;;;;;;;;5027450;28;20045;-81
2024/02/26 13:15:45;;;;;;;0.20;0.10;;;;;;;;;;5026929;28;20075;-82
2024/02/26 13:18:12;;;;;;;0.20;0.10;;;;;;;;;;5010866;28;20033;-82
2024/02/26 13:20:40;;;;;;;0.20;0.10;;;;;;;;;;5020272;28;20060;-82
2024/02/26 13:23:12;;;;;;;0.20;0.10;;;;;;;;;;5011808;28;20105;-79
2024/02/26 13:25:41;;;;;;;0.20;0.00;;;;;;;;;;5008468;28;20053;-83
2024/02/26 13:28:17;;;;;;;0.20;0.00;;;;;;;;;;5013819;28;20080;-84
2024/02/26 13:30:53;;;;;;;0.20;0.13;;;;;;;;;;5031144;28;20044;-82
2024/02/26 13:33:19;;;;;;;0.50;0.50;;;;;;;;;;5025116;28;21735;-84
2024/02/26 13:35:45;;;;;;;0.20;0.10;;;;;;;;;;5026488;28;20045;-83
2024/02/26 13:38:12;;;;;;;0.20;0.00;;;;;;;;;;5023560;28;20037;-81
2024/02/26 13:40:39;;;;;;;0.20;0.10;;;;;;;;;;5009746;28;20033;-82
2024/02/26 13:43:05;;;;;;;0.35;0.28;;;;;;;;;;5007618;28;20049;-82
2024/02/26 13:45:34;;;;;;;0.20;0.10;;;;;;;;;;5013618;28;20061;-82
2024/02/26 13:48:02;;;;;;;0.20;0.00;;;;;;;;;;5012434;28;20033;-81
2024/02/26 13:50:29;;;;;;;0.20;0.10;;;;;;;;;;5024642;28;20118;-81
2024/02/26 13:52:56;;;;;;;0.20;0.10;;;;;;;;;;5009032;28;20044;-78
2024/02/26 13:55:31;;;;;;;0.20;0.00;;;;;;;;;;5006060;28;20041;-83
2024/02/26 13:57:58;;;;;;;0.32;0.30;;;;;;;;;;5029248;28;20047;-84
2024/02/26 14:00:25;;;;;;;0.20;0.10;;;;;;;;;;5024343;28;20142;-85
2024/02/26 14:02:51;;;;;;;0.20;0.10;;;;;;;;;;5031600;28;20589;-82
2024/02/26 14:05:17;;;;;;;0.20;0.10;;;;;;;;;;5029868;28;20049;-82
2024/02/26 14:07:43;;;;;;;0.20;0.05;;;;;;;;;;5020264;28;20041;-84
2024/02/26 14:10:12;;;;;;;0.20;0.10;;;;;;;;;;5033082;28;20062;-84
2024/02/26 14:12:38;;;;;;;0.20;0.10;;;;;;;;;;5017220;28;20045;-80
2024/02/26 14:15:05;;;;;;;0.20;0.10;;;;;;;;;;5013281;28;20097;-82
2024/02/26 14:17:31;;;;;;;0.20;0.10;;;;;;;;;;5030428;28;20045;-84
2024/02/26 14:19:57;;;;;;;0.20;0.10;;;;;;;;;;5029702;28;20049;-82
2024/02/26 14:22:23;;;;;;;0.20;0.10;;;;;;;;;;5033593;28;20061;-82
2024/02/26 14:24:50;;;;;;;0.20;0.10;;;;;;;;;;5030627;28;20568;-83
2024/02/26 14:27:17;;;;;;;0.20;0.10;;;;;;;;;;5031955;28;20045;-83
2024/02/26 14:29:43;;;;;;;0.20;0.10;;;;;;;;;;5016261;28;20075;-85
2024/02/26 14:32:10;;;;;;;0.20;0.10;;;;;;;;;;5016653;28;20523;-84
2024/02/26 14:34:37;;;;;;;0.20;0.00;;;;;;;;;;5013750;28;20057;-84
2024/02/26 14:37:04;;;;;;;0.20;0.10;;;;;;;;;;5027078;28;20041;-84
2024/02/26 14:39:31;;;;;;;0.20;0.10;;;;;;;;;;5032370;28;20097;-85
2024/02/26 14:41:57;;;;;;;0.20;0.10;;;;;;;;;;5014212;28;20049;-82
2024/02/26 14:44:24;;;;;;;0.20;0.10;;;;;;;;;;5013324;28;20043;-80
2024/02/26 14:46:50;;;;;;;0.20;0.10;;;;;;;;;;5010752;28;20056;-81